METAR Data
IDs: Format: Raw Decoded Include TAF

Data at: 1152 UTC 23 Sep 2018

KCJR 231135Z AUTO 33003KT 5SM +RA SCT016 BKN021 OVC046 14/14 A3020 RMK AO2 P0016 T01440135
KCJR 231115Z AUTO 34005KT 4SM +RA SCT009 BKN023 OVC041 15/14 A3020 RMK AO2 P0006 T01450136
KCJR 231055Z AUTO 33004KT 4SM RA OVC009 15/14 A3020 RMK AO2 P0014 T01460136
KCJR 231035Z AUTO 22003KT 7SM RA BKN007 BKN022 OVC032 15/14 A3020 RMK AO2 P0003 T01470136
KCJR 231015Z AUTO 01005KT 10SM -RA SCT009 OVC032 15/14 A3017 RMK AO2 T01480137
KCJR 230955Z AUTO 03005KT 10SM -RA BKN026 OVC032 15/14 A3017 RMK AO2 P0003 T01480138
KCJR 230935Z AUTO 02006KT 10SM -RA OVC024 15/14 A3019 RMK AO2 P0002 T01500139
KCJR 230915Z AUTO 01004KT 10SM -RA OVC024 15/14 A3019 RMK AO2 P0001 T01500140
KCJR 230850Z AUTO 00000KT 10SM -RA OVC024 15/14 A3020 RMK AO2 P0001 60045 T01520142
KCJR 230835Z AUTO 36005KT 10SM -DZ OVC024 15/14 A3019 RMK AO2 T01520141
KCJR 230815Z AUTO 36005KT 10SM RA OVC024 15/14 A3019 RMK AO2 T01520141
KCJR 230755Z AUTO 36005KT 10SM -RA BKN022 OVC047 15/14 A3019 RMK AO2 P0014 T01510142
KCJR 230735Z AUTO 36003KT 4SM +RA OVC022 15/14 A3019 RMK AO2 P0013 T01500140
KCJR 230715Z AUTO 35004KT 5SM RA SCT008 BKN022 OVC037 15/14 A3019 RMK AO2 P0005 T01510140
KCJR 230655Z AUTO 34007KT 5SM +RA SCT028 BKN039 OVC050 15/14 A3019 RMK AO2 P0029 T01520143
KCJR 230635Z AUTO 35004KT 4SM +RA BKN026 BKN041 OVC050 16/15 A3020 RMK AO2 P0021 T01550145
KCJR 230615Z AUTO 36003KT 3SM +RA BKN026 BKN042 OVC095 16/15 A3020 RMK AO2 P0008 T01560145
KCJR 230555Z AUTO 00000KT 7SM RA SCT028 SCT060 OVC095 16/15 A3021 RMK AO2 P0011 60013 T01590147 10200 20159
KCJR 230535Z AUTO 00000KT 5SM RA SCT050 SCT065 OVC095 16/15 A3021 RMK AO2 P0007 T01600149
KCJR 230515Z AUTO 00000KT 10SM RA BKN040 BKN050 OVC095 17/14 A3022 RMK AO2 P0002 T01650142
KCJR 230455Z AUTO 00000KT 7SM -RA OVC040 17/14 A3022 RMK AO2 P0002 T01660138 402530166
KCJR 230435Z AUTO 34003KT 10SM OVC044 18/13 A3022 RMK AO2 T01750128
KCJR 230415Z AUTO 36004KT 10SM OVC046 18/13 A3022 RMK AO2 T01750128
KCJR 230355Z AUTO 36004KT 10SM OVC048 18/13 A3022 RMK AO2 T01770128
KCJR 230335Z AUTO 02003KT 10SM OVC050 18/13 A3022 RMK AO2 T01780127
KCJR 230315Z AUTO 00000KT 10SM BKN047 OVC055 18/13 A3022 RMK AO2 T01780128
KCJR 230255Z AUTO 00000KT 10SM SCT047 OVC055 18/13 A3022 RMK AO2 T01770129
KCJR 230235Z AUTO 00000KT 10SM SCT045 OVC055 18/13 A3022 RMK AO2 T01800125
KCJR 230215Z AUTO 02003KT 10SM BKN055 18/12 A3021 RMK AO2 T01820122
KCJR 230155Z AUTO 05004KT 10SM SCT047 BKN055 19/12 A3021 RMK AO2 LTG DSNT SW T01850121
KCJR 230135Z AUTO 03004KT 10SM OVC047 19/13 A3021 RMK AO2 T01880125
KCJR 230115Z AUTO 00000KT 10SM BKN045 OVC090 19/14 A3021 RMK AO2 T01900140
KCJR 230055Z AUTO 02005KT 10SM OVC090 19/15 A3020 RMK AO2 T01930145
KCJR 230035Z AUTO 02005KT 10SM BKN046 BKN060 OVC090 20/14 A3019 RMK AO2 T01970143
KCJR 230015Z AUTO 02006KT 10SM OVC046 20/15 A3019 RMK AO2 T01980149
KCJR 222355Z AUTO 36005KT 10SM BKN046 OVC060 20/15 A3018 RMK AO2 T01980151 10253 20198
KCJR 222335Z AUTO 35004KT 10SM SCT044 OVC060 20/15 A3018 RMK AO2 T02000151
KCJR 222315Z AUTO 36003KT 10SM OVC044 20/15 A3017 RMK AO2 T02010147
KCJR 222255Z AUTO 00000KT 10SM OVC044 20/15 A3017 RMK AO2 T02010150
KCJR 222235Z AUTO 36003KT 10SM OVC044 21/14 A3017 RMK AO2 T02050144
KCJR 222215Z AUTO 00000KT 10SM BKN044 OVC090 21/14 A3017 RMK AO2 T02050140
KCJR 222155Z AUTO 36005KT 10SM SCT044 BKN075 OVC090 21/14 A3017 RMK AO2 T02100139
KCJR 222135Z AUTO 35003KT 10SM OVC075 21/15 A3016 RMK AO2 T02100145
KCJR 222115Z AUTO 36004KT 10SM BKN075 OVC085 21/14 A3016 RMK AO2 T02120136
KCJR 222055Z AUTO 36006KT 10SM OVC075 22/14 A3015 RMK AO2 T02150139
KCJR 222035Z AUTO 36004KT 10SM SCT065 OVC075 22/14 A3014 RMK AO2 T02160137
KCJR 222015Z AUTO 02004KT 10SM SCT055 OVC065 22/14 A3014 RMK AO2 T02200143
KCJR 221955Z AUTO 35007KT 10SM OVC050 22/14 A3015 RMK AO2 T02230138
KCJR 221930Z AUTO 01007KT 10SM BKN050 OVC065 24/15 A3014 RMK AO2 T02350148
KCJR 221915Z AUTO 02006KT 10SM OVC050 23/14 A3015 RMK AO2 T02330137
KCJR 221855Z AUTO 03007KT 10SM OVC050 24/13 A3015 RMK AO2 T02350126
KCJR 221835Z AUTO 36010KT 10SM BKN050 BKN060 BKN080 24/14 A3015 RMK AO2 T02420139
KCJR 221815Z AUTO 02009KT 10SM BKN048 BKN060 25/13 A3016 RMK AO2 T02490125
KCJR 221755Z AUTO 36008KT 10SM OVC048 25/15 A3017 RMK AO2 T02520149 10253 20223
KCJR 221735Z AUTO 02010KT 10SM BKN050 25/14 A3017 RMK AO2 T02490141
KCJR 221715Z AUTO 36009KT 10SM SCT050 25/14 A3017 RMK AO2 T02520136
KCJR 221655Z AUTO 36010G15KT 10SM SCT110 25/13 A3017 RMK AO2 T02500134
KCJR 221635Z AUTO 35009KT 10SM SCT110 25/14 A3017 RMK AO2 T02460142
KCJR 221615Z AUTO 01009KT 10SM SCT090 25/15 A3017 RMK AO2 T02460151
KCJR 221555Z AUTO 36008G15KT 10SM SCT090 24/15 A3017 RMK AO2 T02390151
KCJR 221535Z AUTO 36009KT 10SM SCT090 SCT110 23/16 A3017 RMK AO2 T02320159
KCJR 221515Z AUTO 34007KT 10SM BKN090 BKN110 24/16 A3017 RMK AO2 T02400161
KCJR 221455Z AUTO 36008KT 10SM SCT090 24/15 A3017 RMK AO2 T02350146
KCJR 221435Z AUTO 35006KT 10SM SCT110 24/16 A3016 RMK AO2 T02370157
KCJR 221415Z AUTO 36009G16KT 10SM SCT020 OVC110 24/16 A3016 RMK AO2 T02350162
KCJR 221355Z AUTO 35014KT 10SM BKN020 BKN110 24/18 A3014 RMK AO2 T02400179
KCJR 221335Z AUTO 36008KT 10SM BKN018 BKN085 BKN120 24/20 A3014 RMK AO2 T02420198
KCJR 221315Z AUTO 01005KT 10SM SCT018 SCT120 24/21 A3013 RMK AO2 T02430207
KCJR 221255Z AUTO 02004KT 10SM SCT120 24/21 A3013 RMK AO2 T02400212
KCJR 221235Z AUTO 00000KT 7SM SCT120 23/22 A3012 RMK AO2 T02330220
KCJR 221215Z AUTO 00000KT 5SM BR CLR 23/22 A3012 RMK AO2 T02270219
KCJR 221155Z AUTO 00000KT 4SM BR CLR 22/22 A3012 RMK AO2 70002 T02230215 10230 20212
KCJR 221135Z AUTO 00000KT 2SM BR CLR 22/21 A3011 RMK AO2 T02170208
KCJR 221115Z AUTO 00000KT 1 3/4SM BR SCT120 21/21 A3010 RMK AO2 T02140205
KCJR 221055Z AUTO 00000KT 1 1/2SM BR BKN120 21/21 A3009 RMK AO2 T02140205
KCJR 221035Z AUTO 00000KT 2 1/2SM BR SCT120 22/21 A3009 RMK AO2 T02150205
KCJR 221015Z AUTO 00000KT 2 1/2SM BR CLR 22/21 A3009 RMK AO2 T02160207
KCJR 220955Z AUTO 00000KT 4SM BR SCT006 BKN120 22/21 A3007 RMK AO2 T02170209
KCJR 220935Z AUTO 00000KT 4SM BR BKN006 OVC120 22/21 A3006 RMK AO2 T02210212
KCJR 220915Z AUTO 00000KT 7SM BKN006 OVC120 23/22 A3005 RMK AO2 T02250215
KCJR 220855Z AUTO 00000KT 5SM BR SCT006 OVC120 22/21 A3004 RMK AO2 T02220213
KCJR 220835Z AUTO 00000KT 7SM BKN120 22/22 A3003 RMK AO2 T02230215
KCJR 220815Z AUTO 00000KT 7SM SCT110 22/22 A3003 RMK AO2 T02230215
KCJR 220755Z AUTO 00000KT 7SM BKN110 22/21 A3003 RMK AO2 T02220213
KCJR 220735Z AUTO 00000KT 7SM OVC100 23/22 A3003 RMK AO2 T02250215
KCJR 220715Z AUTO 00000KT 7SM BKN100 23/22 A3004 RMK AO2 T02260215
KCJR 220655Z AUTO 00000KT 7SM CLR 23/22 A3004 RMK AO2 T02250215
KCJR 220635Z AUTO 21003KT 7SM CLR 23/22 A3004 RMK AO2 T02270215
KCJR 220615Z AUTO 21004KT 10SM CLR 23/22 A3004 RMK AO2 T02290215
KCJR 220555Z AUTO 20004KT 10SM CLR 23/22 A3005 RMK AO2 T02300215 10245 20230
KCJR 220535Z AUTO 18004KT 10SM CLR 23/22 A3005 RMK AO2 T02300216
KCJR 220515Z AUTO 18004KT 10SM CLR 23/22 A3006 RMK AO2 T02310216
KCJR 220455Z AUTO 20003KT 10SM CLR 23/22 A3006 RMK AO2 T02320216 402700196
KCJR 220435Z AUTO 20003KT 10SM CLR 23/22 A3006 RMK AO2 T02330216
KCJR 220415Z AUTO 20003KT 10SM CLR 24/22 A3007 RMK AO2 T02350216
KCJR 220355Z AUTO 20004KT 10SM CLR 24/22 A3008 RMK AO2 T02350215
KCJR 220335Z AUTO 20006KT 10SM SCT028 BKN120 24/22 A3008 RMK AO2 T02360215
KCJR 220315Z AUTO 20005KT 10SM BKN028 24/22 A3008 RMK AO2 T02360215
KCJR 220255Z AUTO 19005KT 10SM SCT030 SCT120 24/21 A3008 RMK AO2 T02350213
KCJR 220235Z AUTO 19006KT 10SM SCT030 SCT120 24/21 A3007 RMK AO2 T02350213
KCJR 220215Z AUTO 19005KT 10SM CLR 24/21 A3007 RMK AO2 T02350212
KCJR 220155Z AUTO 19004KT 10SM CLR 24/21 A3008 RMK AO2 T02370212
KCJR 220135Z AUTO 19003KT 10SM CLR 24/21 A3008 RMK AO2 T02370212
KCJR 220115Z AUTO 20004KT 10SM CLR 24/21 A3008 RMK AO2 T02380213
KCJR 220055Z AUTO 19005KT 10SM CLR 24/22 A3006 RMK AO2 T02400215
KCJR 220035Z AUTO 19004KT 10SM CLR 24/22 A3006 RMK AO2 T02410216
KCJR 220015Z AUTO 17003KT 10SM CLR 24/22 A3005 RMK AO2 T02420217
KCJR 212355Z AUTO 19005KT 10SM CLR 25/22 A3004 RMK AO2 T02450220 10270 20233